createdAt,value
2017-06-01T00:00:42.088Z,18.22
2017-06-01T00:01:42.789Z,18.20
2017-06-01T00:02:43.493Z,18.19
2017-06-01T00:03:44.448Z,18.22
2017-06-01T00:04:45.151Z,18.23
2017-06-01T00:05:45.855Z,18.10
2017-06-01T00:06:46.558Z,18.13
2017-06-01T00:07:47.259Z,18.03
2017-06-01T00:08:48.210Z,18.00
2017-06-01T00:09:48.912Z,18.13
2017-06-01T00:10:49.613Z,18.03
2017-06-01T00:11:50.316Z,18.07
2017-06-01T00:12:51.024Z,18.00
2017-06-01T00:13:51.977Z,17.98
2017-06-01T00:14:52.678Z,17.95
2017-06-01T00:15:53.380Z,17.98
2017-06-01T00:16:54.083Z,18.00
2017-06-01T00:17:54.786Z,17.97
2017-06-01T00:18:55.740Z,17.94
2017-06-01T00:19:56.442Z,17.87
2017-06-01T00:20:57.143Z,17.76
2017-06-01T00:21:57.841Z,17.79
2017-06-01T00:22:58.543Z,17.72
2017-06-01T00:23:59.494Z,17.63
2017-06-01T00:25:00.196Z,17.63
2017-06-01T00:26:00.899Z,17.51
2017-06-01T00:27:01.605Z,17.56
2017-06-01T00:28:02.312Z,17.56
2017-06-01T00:29:03.263Z,17.63
2017-06-01T00:30:03.960Z,17.63
2017-06-01T00:31:04.660Z,17.79
2017-06-01T00:32:05.361Z,17.65
2017-06-01T00:33:06.060Z,17.56
2017-06-01T00:34:07.012Z,17.59
2017-06-01T00:35:07.715Z,17.57
2017-06-01T00:36:08.418Z,17.71
2017-06-01T00:37:09.122Z,17.42
2017-06-01T00:38:09.826Z,17.31
2017-06-01T00:39:10.780Z,17.29
2017-06-01T00:40:11.487Z,17.22
2017-06-01T00:41:12.186Z,17.16
2017-06-01T00:42:12.887Z,17.20
2017-06-01T00:43:13.593Z,17.12
2017-06-01T00:44:14.542Z,17.12
2017-06-01T00:45:15.239Z,17.09
2017-06-01T00:46:15.939Z,17.05
2017-06-01T00:47:16.637Z,17.14
2017-06-01T00:48:17.341Z,17.12
2017-06-01T00:49:18.292Z,17.09
2017-06-01T00:50:19.001Z,17.05
2017-06-01T00:51:19.707Z,17.08
2017-06-01T00:52:20.408Z,17.15
2017-06-01T00:53:21.111Z,17.06
2017-06-01T00:54:22.061Z,16.94
2017-06-01T00:55:22.759Z,17.01
2017-06-01T00:56:23.459Z,16.90
2017-06-01T00:57:24.160Z,16.74
2017-06-01T00:58:24.869Z,16.75
2017-06-01T00:59:25.822Z,16.76
2017-06-01T01:00:26.526Z,16.72
2017-06-01T01:01:27.224Z,16.72
2017-06-01T01:02:27.927Z,16.66
2017-06-01T01:03:28.626Z,16.57
2017-06-01T01:04:29.580Z,16.60
2017-06-01T01:05:30.283Z,16.61
2017-06-01T01:06:30.984Z,16.66
2017-06-01T01:07:31.685Z,16.74
2017-06-01T01:08:32.385Z,16.89
2017-06-01T01:09:33.339Z,16.84
2017-06-01T01:10:34.041Z,16.99
2017-06-01T01:11:34.741Z,16.91
2017-06-01T01:12:35.440Z,16.87
2017-06-01T01:13:36.137Z,16.68
2017-06-01T01:14:37.315Z,16.75
2017-06-01T01:15:38.011Z,16.74
2017-06-01T01:16:38.710Z,16.76
2017-06-01T01:17:39.412Z,16.71
2017-06-01T01:18:40.121Z,16.65
2017-06-01T01:19:41.071Z,16.57
2017-06-01T01:20:41.777Z,16.65
2017-06-01T01:21:42.478Z,16.51
2017-06-01T01:22:43.177Z,16.51
2017-06-01T01:23:43.874Z,16.50
2017-06-01T01:24:44.824Z,16.49
2017-06-01T01:25:45.521Z,16.51
2017-06-01T01:26:46.219Z,16.58
2017-06-01T01:27:46.915Z,16.65
2017-06-01T01:28:47.617Z,16.56
2017-06-01T01:29:48.519Z,16.43
2017-06-01T01:30:49.219Z,16.41
2017-06-01T01:31:49.921Z,16.42
2017-06-01T01:32:50.622Z,16.36
2017-06-01T01:33:51.320Z,16.20
2017-06-01T01:34:52.218Z,16.28
2017-06-01T01:35:52.916Z,16.15
2017-06-01T01:36:53.618Z,16.28
2017-06-01T01:37:54.320Z,16.23
2017-06-01T01:38:55.023Z,16.24
2017-06-01T01:39:55.971Z,16.15
2017-06-01T01:40:56.669Z,16.17
2017-06-01T01:41:57.367Z,16.17
2017-06-01T01:42:58.069Z,16.15
2017-06-01T01:43:58.772Z,16.02
2017-06-01T01:44:59.727Z,16.01
2017-06-01T01:46:00.427Z,15.97
2017-06-01T01:47:01.127Z,15.97
2017-06-01T01:48:01.825Z,15.92
2017-06-01T01:49:02.524Z,15.94
2017-06-01T01:50:03.476Z,15.86
2017-06-01T01:51:04.177Z,15.73
2017-06-01T01:52:04.876Z,15.68
2017-06-01T01:53:05.572Z,15.65
2017-06-01T01:54:06.270Z,15.62
2017-06-01T01:55:07.174Z,15.72
2017-06-01T01:56:07.874Z,15.64
2017-06-01T01:57:08.574Z,15.73
2017-06-01T01:58:09.272Z,15.68
2017-06-01T01:59:09.970Z,15.62
2017-06-01T02:00:10.920Z,15.58
2017-06-01T02:01:11.621Z,15.62
2017-06-01T02:02:12.328Z,15.65
2017-06-01T02:03:13.029Z,15.59
2017-06-01T02:04:13.728Z,15.67
2017-06-01T02:05:14.679Z,15.68
2017-06-01T02:06:15.381Z,15.72
2017-06-01T02:07:16.079Z,15.72
2017-06-01T02:08:16.777Z,15.65
2017-06-01T02:09:17.480Z,15.59
2017-06-01T02:10:18.382Z,15.57
2017-06-01T02:11:19.083Z,15.57
2017-06-01T02:12:19.781Z,15.54
2017-06-01T02:13:20.479Z,15.65
2017-06-01T02:14:21.187Z,15.55
2017-06-01T02:15:22.088Z,15.62
2017-06-01T02:16:22.787Z,15.59
2017-06-01T02:17:23.485Z,15.72
2017-06-01T02:18:24.184Z,15.65
2017-06-01T02:19:24.957Z,15.59
2017-06-01T02:20:25.867Z,15.68
2017-06-01T02:21:26.570Z,15.58
2017-06-01T02:22:27.268Z,15.70
2017-06-01T02:23:27.965Z,15.67
2017-06-01T02:24:28.668Z,15.65
2017-06-01T02:25:29.620Z,15.77
2017-06-01T02:26:30.319Z,15.79
2017-06-01T02:27:31.019Z,15.75
2017-06-01T02:28:31.714Z,15.73
2017-06-01T02:29:32.414Z,15.59
2017-06-01T02:30:33.365Z,15.57
2017-06-01T02:31:34.069Z,15.59
2017-06-01T02:32:34.765Z,15.51
2017-06-01T02:33:35.464Z,15.57
2017-06-01T02:34:36.162Z,15.62
2017-06-01T02:35:37.115Z,15.55
2017-06-01T02:36:37.816Z,15.55
2017-06-01T02:37:38.517Z,15.51
2017-06-01T02:38:39.213Z,15.54
2017-06-01T02:39:39.913Z,15.59
2017-06-01T02:40:40.812Z,15.58
2017-06-01T02:41:41.536Z,15.65
2017-06-01T02:42:42.237Z,15.58
2017-06-01T02:43:42.946Z,15.55
2017-06-01T02:44:43.642Z,15.55
2017-06-01T02:45:44.593Z,15.54
2017-06-01T02:46:45.295Z,15.47
2017-06-01T02:47:45.999Z,15.51
2017-06-01T02:48:46.700Z,15.49
2017-06-01T02:49:47.401Z,15.47
2017-06-01T02:50:48.299Z,15.42
2017-06-01T02:51:48.997Z,15.43
2017-06-01T02:52:49.696Z,15.39
2017-06-01T02:53:50.391Z,15.29
2017-06-01T02:54:51.089Z,15.35
2017-06-01T02:55:52.041Z,15.28
2017-06-01T02:56:52.747Z,15.22
2017-06-01T02:57:53.445Z,15.33
2017-06-01T02:58:54.149Z,15.31
2017-06-01T02:59:54.849Z,15.36
2017-06-01T03:00:55.802Z,15.37
2017-06-01T03:01:56.503Z,15.31
2017-06-01T03:02:57.206Z,15.36
2017-06-01T03:03:57.907Z,15.36
2017-06-01T03:04:58.612Z,15.36
2017-06-01T03:05:59.510Z,15.24
2017-06-01T03:07:00.207Z,15.22
2017-06-01T03:08:00.907Z,15.22
2017-06-01T03:09:01.605Z,15.24
2017-06-01T03:10:02.307Z,15.25
2017-06-01T03:11:03.210Z,15.15
2017-06-01T03:12:03.912Z,15.15
2017-06-01T03:13:04.612Z,15.22
2017-06-01T03:14:05.315Z,15.21
2017-06-01T03:15:06.016Z,15.19
2017-06-01T03:16:06.918Z,15.22
2017-06-01T03:17:07.621Z,15.19
2017-06-01T03:18:08.345Z,15.22
2017-06-01T03:19:09.046Z,15.21
2017-06-01T03:20:09.748Z,15.22
2017-06-01T03:21:10.702Z,15.24
2017-06-01T03:22:11.408Z,15.22
2017-06-01T03:23:12.108Z,15.33
2017-06-01T03:24:12.810Z,15.31
2017-06-01T03:25:13.508Z,15.33
2017-06-01T03:26:14.458Z,15.36
2017-06-01T03:27:15.159Z,15.35
2017-06-01T03:28:15.875Z,15.29
2017-06-01T03:29:16.573Z,15.33
2017-06-01T03:30:17.273Z,15.37
2017-06-01T03:31:18.224Z,15.29
2017-06-01T03:32:18.932Z,15.28
2017-06-01T03:33:19.635Z,15.22
2017-06-01T03:34:20.344Z,15.25
2017-06-01T03:35:21.046Z,15.22
2017-06-01T03:36:21.997Z,15.21
2017-06-01T03:37:22.699Z,15.18
2017-06-01T03:38:23.402Z,15.15
2017-06-01T03:39:24.104Z,15.03
2017-06-01T03:40:24.808Z,15.10
2017-06-01T03:41:25.715Z,15.15
2017-06-01T03:42:26.423Z,15.11
2017-06-01T03:43:27.127Z,15.31
2017-06-01T03:44:27.831Z,15.25
2017-06-01T03:45:28.534Z,15.25
2017-06-01T03:46:29.487Z,15.22
2017-06-01T03:47:30.187Z,15.28
2017-06-01T03:48:30.892Z,15.43
2017-06-01T03:49:31.602Z,15.35
2017-06-01T03:50:32.304Z,15.37
2017-06-01T03:51:33.257Z,15.31
2017-06-01T03:52:33.959Z,15.42
2017-06-01T03:53:34.662Z,15.37
2017-06-01T03:54:35.364Z,15.42
2017-06-01T03:55:36.069Z,15.44
2017-06-01T03:56:37.026Z,15.43
2017-06-01T03:57:37.730Z,15.43
2017-06-01T03:58:38.434Z,15.39
2017-06-01T03:59:39.142Z,15.42
2017-06-01T04:00:39.844Z,15.46
2017-06-01T04:01:40.796Z,15.42
2017-06-01T04:02:41.501Z,15.52
2017-06-01T04:03:42.207Z,15.54
2017-06-01T04:04:42.912Z,15.57
2017-06-01T04:05:43.615Z,15.54
2017-06-01T04:06:44.517Z,15.49
2017-06-01T04:07:45.220Z,15.62
2017-06-01T04:08:45.930Z,15.57
2017-06-01T04:09:46.635Z,15.57
2017-06-01T04:10:47.341Z,15.51
2017-06-01T04:11:48.251Z,15.58
2017-06-01T04:12:48.957Z,15.59
2017-06-01T04:13:49.662Z,15.61
2017-06-01T04:14:50.369Z,15.70
2017-06-01T04:15:51.074Z,15.73
2017-06-01T04:16:51.978Z,15.73
2017-06-01T04:17:52.685Z,15.75
2017-06-01T04:18:53.390Z,15.84
2017-06-01T04:19:54.098Z,15.88
2017-06-01T04:20:54.805Z,15.84
2017-06-01T04:21:55.756Z,15.95
2017-06-01T04:22:56.459Z,15.92
2017-06-01T04:23:57.162Z,15.94
2017-06-01T04:24:57.866Z,15.90
2017-06-01T04:25:58.572Z,15.94
2017-06-01T04:26:59.525Z,15.90
2017-06-01T04:28:00.234Z,16.01
2017-06-01T04:29:00.935Z,15.91
2017-06-01T04:30:01.637Z,16.02
2017-06-01T04:31:02.348Z,16.02
2017-06-01T04:32:03.249Z,16.09
2017-06-01T04:33:03.952Z,16.16
2017-06-01T04:34:04.656Z,16.15
2017-06-01T04:35:05.358Z,16.20
2017-06-01T04:36:06.061Z,16.24
2017-06-01T04:37:07.013Z,16.32
2017-06-01T04:38:07.715Z,16.24
2017-06-01T04:39:08.418Z,16.32
2017-06-01T04:40:09.126Z,16.24
2017-06-01T04:41:09.829Z,16.41
2017-06-01T04:42:10.742Z,16.35
2017-06-01T04:43:11.442Z,16.41
2017-06-01T04:44:12.144Z,16.35
2017-06-01T04:45:12.848Z,16.35
2017-06-01T04:46:13.551Z,16.38
2017-06-01T04:47:14.457Z,16.54
2017-06-01T04:48:15.161Z,16.43
2017-06-01T04:49:15.867Z,16.65
2017-06-01T04:50:16.571Z,16.72
2017-06-01T04:51:17.275Z,16.78
2017-06-01T04:52:18.181Z,16.74
2017-06-01T04:53:18.881Z,16.78
2017-06-01T04:54:19.583Z,16.84
2017-06-01T04:55:20.287Z,16.81
2017-06-01T04:56:20.990Z,16.76
2017-06-01T04:57:21.893Z,16.78
2017-06-01T04:58:22.597Z,16.84
2017-06-01T04:59:23.303Z,16.75
2017-06-01T05:00:24.015Z,16.89
2017-06-01T05:01:24.717Z,16.79
2017-06-01T05:02:25.671Z,16.89
2017-06-01T05:03:26.377Z,16.86
2017-06-01T05:04:27.090Z,16.89
2017-06-01T05:05:27.802Z,16.87
2017-06-01T05:06:28.507Z,16.91
2017-06-01T05:07:29.418Z,16.97
2017-06-01T05:08:30.127Z,16.94
2017-06-01T05:09:30.835Z,16.97
2017-06-01T05:10:31.543Z,16.99
2017-06-01T05:11:32.245Z,17.04
2017-06-01T05:12:33.200Z,17.08
2017-06-01T05:13:33.906Z,17.15
2017-06-01T05:14:34.610Z,17.14
2017-06-01T05:15:35.328Z,17.16
2017-06-01T05:16:36.032Z,17.22
2017-06-01T05:17:36.984Z,17.27
2017-06-01T05:18:37.690Z,17.27
2017-06-01T05:19:38.394Z,17.22
2017-06-01T05:20:39.104Z,17.27
2017-06-01T05:21:39.812Z,17.36
2017-06-01T05:22:40.514Z,17.38
2017-06-01T05:23:41.221Z,17.41
2017-06-01T05:24:41.927Z,17.44
2017-06-01T05:25:42.633Z,17.41
2017-06-01T05:26:43.341Z,17.41
2017-06-01T05:27:44.302Z,17.44
2017-06-01T05:28:45.007Z,17.56
2017-06-01T05:29:45.735Z,17.59
2017-06-01T05:30:46.459Z,17.67
2017-06-01T05:31:47.164Z,17.64
2017-06-01T05:32:48.067Z,17.74
2017-06-01T05:33:48.775Z,17.79
2017-06-01T05:34:49.480Z,17.76
2017-06-01T05:35:50.191Z,17.78
2017-06-01T05:36:50.894Z,17.87
2017-06-01T05:37:51.857Z,17.87
2017-06-01T05:38:52.578Z,17.97
2017-06-01T05:39:53.287Z,17.90
2017-06-01T05:40:53.996Z,18.04
2017-06-01T05:41:54.701Z,18.11
2017-06-01T05:42:55.655Z,18.11
2017-06-01T05:43:56.363Z,18.07
2017-06-01T05:44:57.068Z,18.04
2017-06-01T05:45:57.776Z,18.03
2017-06-01T05:46:58.481Z,18.15
2017-06-01T05:47:59.439Z,18.05
2017-06-01T05:49:00.145Z,18.22
2017-06-01T05:50:00.848Z,18.22
2017-06-01T05:51:01.552Z,18.16
2017-06-01T05:52:02.257Z,18.25
2017-06-01T05:53:03.219Z,18.26
2017-06-01T05:54:03.936Z,18.41
2017-06-01T05:55:04.643Z,18.28
2017-06-01T05:56:05.345Z,18.35
2017-06-01T05:57:06.052Z,18.38
2017-06-01T05:58:06.961Z,18.49
2017-06-01T05:59:07.662Z,18.49
2017-06-01T06:00:08.364Z,18.52
2017-06-01T06:01:09.070Z,18.58
2017-06-01T06:02:09.775Z,18.63
2017-06-01T06:03:10.731Z,18.65
2017-06-01T06:04:11.435Z,18.78
2017-06-01T06:05:12.139Z,18.62
2017-06-01T06:06:12.846Z,18.59
2017-06-01T06:07:13.553Z,18.77
2017-06-01T06:08:14.460Z,18.80
2017-06-01T06:09:15.168Z,18.77
2017-06-01T06:10:15.876Z,18.77
2017-06-01T06:11:16.592Z,18.83
2017-06-01T06:12:17.297Z,18.86
2017-06-01T06:13:18.251Z,18.90
2017-06-01T06:14:18.958Z,18.92
2017-06-01T06:15:19.660Z,18.98
2017-06-01T06:16:20.365Z,18.99
2017-06-01T06:17:21.069Z,18.98
2017-06-01T06:18:21.976Z,18.99
2017-06-01T06:19:22.683Z,19.04
2017-06-01T06:20:23.388Z,19.07
2017-06-01T06:21:24.095Z,18.99
2017-06-01T06:22:24.796Z,18.96
2017-06-01T06:23:25.700Z,19.07
2017-06-01T06:24:26.405Z,19.09
2017-06-01T06:25:27.110Z,19.09
2017-06-01T06:26:27.821Z,19.11
2017-06-01T06:27:28.527Z,19.19
2017-06-01T06:28:29.432Z,19.24
2017-06-01T06:29:30.135Z,19.26
2017-06-01T06:30:30.838Z,19.33
2017-06-01T06:31:31.540Z,19.44
2017-06-01T06:32:32.246Z,19.44
2017-06-01T06:33:33.153Z,19.36
2017-06-01T06:34:33.861Z,19.45
2017-06-01T06:35:34.571Z,19.45
2017-06-01T06:36:35.278Z,19.49
2017-06-01T06:37:35.983Z,19.52
2017-06-01T06:38:36.942Z,19.51
2017-06-01T06:39:37.650Z,19.55
2017-06-01T06:40:38.356Z,19.51
2017-06-01T06:41:39.062Z,19.55
2017-06-01T06:42:39.766Z,19.56
2017-06-01T06:43:40.675Z,19.55
2017-06-01T06:44:41.384Z,19.64
2017-06-01T06:45:42.095Z,19.56
2017-06-01T06:46:42.799Z,19.67
2017-06-01T06:47:43.508Z,19.77
2017-06-01T06:48:44.414Z,19.77
2017-06-01T06:49:45.118Z,19.71
2017-06-01T06:50:45.826Z,19.70
2017-06-01T06:51:46.539Z,19.88
2017-06-01T06:52:47.247Z,19.85
2017-06-01T06:53:48.152Z,19.85
2017-06-01T06:54:48.857Z,19.89
2017-06-01T06:55:49.568Z,19.96
2017-06-01T06:56:50.282Z,19.99
2017-06-01T06:57:50.989Z,19.99
2017-06-01T06:58:51.900Z,20.06
2017-06-01T06:59:52.612Z,20.09
2017-06-01T07:00:53.323Z,20.04
2017-06-01T07:01:54.026Z,20.04
2017-06-01T07:02:54.732Z,20.14
2017-06-01T07:03:55.636Z,20.04
2017-06-01T07:04:56.340Z,20.21
2017-06-01T07:05:57.047Z,20.18
2017-06-01T07:06:57.754Z,20.21
2017-06-01T07:07:58.459Z,20.22
2017-06-01T07:08:59.364Z,20.21
2017-06-01T07:10:00.071Z,20.43
2017-06-01T07:11:00.783Z,20.37
2017-06-01T07:12:01.488Z,20.43
2017-06-01T07:13:02.194Z,20.39
2017-06-01T07:14:03.101Z,20.48
2017-06-01T07:15:03.809Z,20.44
2017-06-01T07:16:04.513Z,20.62
2017-06-01T07:17:05.220Z,20.59
2017-06-01T07:18:05.926Z,20.51
2017-06-01T07:19:06.888Z,20.51
2017-06-01T07:20:07.593Z,20.58
2017-06-01T07:21:08.304Z,20.69
2017-06-01T07:22:09.012Z,20.74
2017-06-01T07:23:09.729Z,20.72
2017-06-01T07:24:10.636Z,20.81
2017-06-01T07:25:11.342Z,20.81
2017-06-01T07:26:12.050Z,20.90
2017-06-01T07:27:12.757Z,20.92
2017-06-01T07:28:13.453Z,20.87
2017-06-01T07:29:14.416Z,20.87
2017-06-01T07:30:15.127Z,20.97
2017-06-01T07:31:15.843Z,20.97
2017-06-01T07:32:16.550Z,21.00
2017-06-01T07:33:17.263Z,21.05
2017-06-01T07:34:18.224Z,21.09
2017-06-01T07:35:18.935Z,21.09
2017-06-01T07:36:19.643Z,21.15
2017-06-01T07:37:20.352Z,21.20
2017-06-01T07:38:21.067Z,21.30
2017-06-01T07:39:22.025Z,21.37
2017-06-01T07:40:22.729Z,21.45
2017-06-01T07:41:23.439Z,21.45
2017-06-01T07:42:24.150Z,21.37
2017-06-01T07:43:24.854Z,21.42
2017-06-01T07:44:25.762Z,21.42
2017-06-01T07:45:26.469Z,21.42
2017-06-01T07:46:27.180Z,21.48
2017-06-01T07:47:27.888Z,21.33
2017-06-01T07:48:28.596Z,21.43
2017-06-01T07:49:29.505Z,21.40
2017-06-01T07:50:30.214Z,21.51
2017-06-01T07:51:30.930Z,21.57
2017-06-01T07:52:31.640Z,21.58
2017-06-01T07:53:32.352Z,21.62
2017-06-01T07:54:33.262Z,21.67
2017-06-01T07:55:33.977Z,21.70
2017-06-01T07:56:34.685Z,21.82
2017-06-01T07:57:35.396Z,21.87
2017-06-01T07:58:36.099Z,21.92
2017-06-01T07:59:37.010Z,21.98
2017-06-01T08:00:37.717Z,22.10
2017-06-01T08:01:38.424Z,22.08
2017-06-01T08:02:39.131Z,22.00
2017-06-01T08:03:39.837Z,22.04
2017-06-01T08:04:40.794Z,22.11
2017-06-01T08:05:41.503Z,22.06
2017-06-01T08:06:42.212Z,22.23
2017-06-01T08:07:42.924Z,22.18
2017-06-01T08:08:43.631Z,22.23
2017-06-01T08:09:44.511Z,22.26
2017-06-01T08:10:45.243Z,22.25
2017-06-01T08:11:45.951Z,22.28
2017-06-01T08:12:46.657Z,22.17
2017-06-01T08:13:47.365Z,22.15
2017-06-01T08:14:48.322Z,22.14
2017-06-01T08:15:49.030Z,22.18
2017-06-01T08:16:49.735Z,22.15
2017-06-01T08:17:50.445Z,22.18
2017-06-01T08:18:51.154Z,22.17
2017-06-01T08:19:52.067Z,22.26
2017-06-01T08:20:52.772Z,22.33
2017-06-01T08:21:53.479Z,22.44
2017-06-01T08:22:54.190Z,22.55
2017-06-01T08:23:54.896Z,22.60
2017-06-01T08:24:55.811Z,22.62
2017-06-01T08:25:56.526Z,22.69
2017-06-01T08:26:57.238Z,22.68
2017-06-01T08:27:57.955Z,22.59
2017-06-01T08:28:58.669Z,22.66
2017-06-01T08:29:59.625Z,22.72
2017-06-01T08:31:00.333Z,22.81
2017-06-01T08:32:01.044Z,22.81
2017-06-01T08:33:01.752Z,22.76
2017-06-01T08:34:03.150Z,22.72
2017-06-01T08:35:04.116Z,22.66
2017-06-01T08:36:04.826Z,22.66
2017-06-01T08:37:05.539Z,22.63
2017-06-01T08:38:06.253Z,22.75
2017-06-01T08:39:06.962Z,22.75
2017-06-01T08:40:07.921Z,22.81
2017-06-01T08:41:08.631Z,22.88
2017-06-01T08:42:09.342Z,22.85
2017-06-01T08:43:10.051Z,22.88
2017-06-01T08:44:10.761Z,22.73
2017-06-01T08:45:11.722Z,22.85
2017-06-01T08:46:12.446Z,22.84
2017-06-01T08:47:13.156Z,22.85
2017-06-01T08:48:13.881Z,22.91
2017-06-01T08:49:14.591Z,22.91
2017-06-01T08:50:15.552Z,22.78
2017-06-01T08:51:16.263Z,22.94
2017-06-01T08:52:16.970Z,23.02
2017-06-01T08:53:17.676Z,23.25
2017-06-01T08:54:18.378Z,23.40
2017-06-01T08:55:19.342Z,23.41
2017-06-01T08:56:20.048Z,23.50
2017-06-01T08:57:20.757Z,23.55
2017-06-01T08:58:21.468Z,23.51
2017-06-01T08:59:22.174Z,23.54
2017-06-01T09:00:23.137Z,23.51
2017-06-01T09:01:23.845Z,23.55
2017-06-01T09:02:24.554Z,23.43
2017-06-01T09:03:25.264Z,23.47
2017-06-01T09:04:25.974Z,23.58
2017-06-01T09:05:26.885Z,23.59
2017-06-01T09:06:27.590Z,23.68
2017-06-01T09:07:28.296Z,23.76
2017-06-01T09:08:29.005Z,23.83
2017-06-01T09:09:29.715Z,23.84
2017-06-01T09:10:30.673Z,23.88
2017-06-01T09:11:31.392Z,23.99
2017-06-01T09:12:32.102Z,23.83
2017-06-01T09:13:32.809Z,23.78
2017-06-01T09:14:33.521Z,23.76
2017-06-01T09:15:34.480Z,23.84
2017-06-01T09:16:35.185Z,23.74
2017-06-01T09:17:35.894Z,23.68
2017-06-01T09:18:36.604Z,23.83
2017-06-01T09:19:37.315Z,23.86
2017-06-01T09:20:38.331Z,23.98
2017-06-01T09:21:39.049Z,23.99
2017-06-01T09:22:39.757Z,24.03
2017-06-01T09:23:40.463Z,23.98
2017-06-01T09:24:41.171Z,24.01
2017-06-01T09:25:42.136Z,24.13
2017-06-01T09:26:42.846Z,24.08
2017-06-01T09:27:43.555Z,24.11
2017-06-01T09:28:44.261Z,24.20
2017-06-01T09:29:44.977Z,24.14
2017-06-01T09:30:45.939Z,24.23
2017-06-01T09:31:46.648Z,24.21
2017-06-01T09:32:47.383Z,24.17
2017-06-01T09:33:48.092Z,24.28
2017-06-01T09:34:48.804Z,24.26
2017-06-01T09:35:49.762Z,24.28
2017-06-01T09:36:50.469Z,24.20
2017-06-01T09:37:51.178Z,24.35
2017-06-01T09:38:51.883Z,24.30
2017-06-01T09:39:52.593Z,24.26
2017-06-01T09:40:53.555Z,24.39
2017-06-01T09:41:54.269Z,24.35
2017-06-01T09:42:54.978Z,24.32
2017-06-01T09:43:55.690Z,24.26
2017-06-01T09:44:56.402Z,24.50
2017-06-01T09:45:57.314Z,24.43
2017-06-01T09:46:58.025Z,24.50
2017-06-01T09:47:58.742Z,24.43
2017-06-01T09:48:59.465Z,24.45
2017-06-01T09:50:00.189Z,24.53
2017-06-01T09:51:01.097Z,24.50
2017-06-01T09:52:01.804Z,24.50
2017-06-01T09:53:02.518Z,24.42
2017-06-01T09:54:03.222Z,24.42
2017-06-01T09:55:03.931Z,24.53
2017-06-01T09:56:04.837Z,24.38
2017-06-01T09:57:05.548Z,24.54
2017-06-01T09:58:06.258Z,24.53
2017-06-01T09:59:06.971Z,24.54
2017-06-01T10:00:07.687Z,24.35
2017-06-01T10:01:08.645Z,24.33
2017-06-01T10:02:09.355Z,24.43
2017-06-01T10:03:10.063Z,24.54
2017-06-01T10:04:10.778Z,24.54
2017-06-01T10:05:11.489Z,24.73
2017-06-01T10:06:12.400Z,24.80
2017-06-01T10:07:13.113Z,24.78
2017-06-01T10:08:13.824Z,24.98
2017-06-01T10:09:14.530Z,24.89
2017-06-01T10:10:15.236Z,25.07
2017-06-01T10:11:16.198Z,25.04
2017-06-01T10:12:16.908Z,24.98
2017-06-01T10:13:17.615Z,24.92
2017-06-01T10:14:18.330Z,25.04
2017-06-01T10:15:19.041Z,25.08
2017-06-01T10:16:19.952Z,25.17
2017-06-01T10:17:20.663Z,25.29
2017-06-01T10:18:21.378Z,25.38
2017-06-01T10:19:22.086Z,25.35
2017-06-01T10:20:22.796Z,25.46
2017-06-01T10:21:23.703Z,25.58
2017-06-01T10:22:24.412Z,25.60
2017-06-01T10:23:25.122Z,25.59
2017-06-01T10:24:25.833Z,25.54
2017-06-01T10:25:26.545Z,25.51
2017-06-01T10:26:27.453Z,25.51
2017-06-01T10:27:28.164Z,25.54
2017-06-01T10:28:28.877Z,25.58
2017-06-01T10:29:29.586Z,25.68
2017-06-01T10:30:30.295Z,25.65
2017-06-01T10:31:31.206Z,25.73
2017-06-01T10:32:31.919Z,25.73
2017-06-01T10:33:32.639Z,25.95
2017-06-01T10:34:33.353Z,25.98
2017-06-01T10:35:34.063Z,25.96
2017-06-01T10:36:34.969Z,25.95
2017-06-01T10:37:35.677Z,25.96
2017-06-01T10:38:36.394Z,26.03
2017-06-01T10:39:37.111Z,26.02
2017-06-01T10:40:37.822Z,25.98
2017-06-01T10:41:38.736Z,26.06
2017-06-01T10:42:39.447Z,26.09
2017-06-01T10:43:40.158Z,26.21
2017-06-01T10:44:40.865Z,26.19
2017-06-01T10:45:41.573Z,26.22
2017-06-01T10:46:42.482Z,26.22
2017-06-01T10:47:43.188Z,26.25
2017-06-01T10:48:43.897Z,26.28
2017-06-01T10:49:44.610Z,26.41
2017-06-01T10:50:45.321Z,26.55
2017-06-01T10:51:46.234Z,26.63
2017-06-01T10:52:46.940Z,26.92
2017-06-01T10:53:47.657Z,26.96
2017-06-01T10:54:48.371Z,27.07
2017-06-01T10:55:49.081Z,26.89
2017-06-01T10:56:50.044Z,27.03
2017-06-01T10:57:50.754Z,26.92
2017-06-01T10:58:51.467Z,26.90
2017-06-01T10:59:52.178Z,26.92
2017-06-01T11:00:52.896Z,26.85
2017-06-01T11:01:53.807Z,27.05
2017-06-01T11:02:54.518Z,27.05
2017-06-01T11:03:55.228Z,27.25
2017-06-01T11:04:55.939Z,27.17
2017-06-01T11:05:56.651Z,27.29
2017-06-01T11:06:57.561Z,27.22
2017-06-01T11:07:58.278Z,27.18
2017-06-01T11:08:58.989Z,27.22
2017-06-01T11:09:59.698Z,27.21
2017-06-01T11:11:00.407Z,27.42
2017-06-01T11:12:01.370Z,27.39
2017-06-01T11:13:02.081Z,27.40
2017-06-01T11:14:02.795Z,27.47
2017-06-01T11:15:03.510Z,27.65
2017-06-01T11:16:04.219Z,27.86
2017-06-01T11:17:05.130Z,27.89
2017-06-01T11:18:05.846Z,27.65
2017-06-01T11:19:06.554Z,27.39
2017-06-01T11:20:07.270Z,27.17
2017-06-01T11:21:07.979Z,27.12
2017-06-01T11:22:08.890Z,27.27
2017-06-01T11:23:09.599Z,27.47
2017-06-01T11:24:10.313Z,27.86
2017-06-01T11:25:11.024Z,28.05
2017-06-01T11:26:11.736Z,28.30
2017-06-01T11:27:12.701Z,28.42
2017-06-01T11:28:13.422Z,28.70
2017-06-01T11:29:14.143Z,28.75
2017-06-01T11:30:14.856Z,28.81
2017-06-01T11:31:15.576Z,29.01
2017-06-01T11:32:16.548Z,29.01
2017-06-01T11:33:17.258Z,29.13
2017-06-01T11:34:17.969Z,29.22
2017-06-01T11:35:18.683Z,29.42
2017-06-01T11:36:19.394Z,29.45
2017-06-01T11:37:20.357Z,29.29
2017-06-01T11:38:21.076Z,29.61
2017-06-01T11:39:21.791Z,30.00
2017-06-01T11:40:22.503Z,30.27
2017-06-01T11:41:23.277Z,30.70
2017-06-01T11:42:24.196Z,31.27
2017-06-01T11:43:24.908Z,31.65
2017-06-01T11:44:25.619Z,32.07
2017-06-01T11:45:26.332Z,32.53
2017-06-01T11:46:27.046Z,32.70
2017-06-01T11:47:28.015Z,32.97
2017-06-01T11:48:28.727Z,33.61
2017-06-01T11:49:29.443Z,34.03
2017-06-01T11:50:30.155Z,34.47
2017-06-01T11:51:30.869Z,34.36
2017-06-01T11:52:31.839Z,34.20
2017-06-01T11:53:32.550Z,34.20
2017-06-01T11:54:33.265Z,34.57
2017-06-01T11:55:33.982Z,35.23
2017-06-01T11:56:34.696Z,35.34
2017-06-01T11:57:35.659Z,35.89
2017-06-01T11:58:36.376Z,36.16
2017-06-01T11:59:37.102Z,36.45
2017-06-01T12:00:37.822Z,36.57
2017-06-01T12:01:38.547Z,36.86
2017-06-01T12:02:39.465Z,36.99
2017-06-01T12:03:40.182Z,36.74
2017-06-01T12:04:40.909Z,36.99
2017-06-01T12:05:41.629Z,37.15
2017-06-01T12:06:42.353Z,37.37
2017-06-01T12:07:43.378Z,37.71
2017-06-01T12:08:44.106Z,37.92
2017-06-01T12:09:44.823Z,38.15
2017-06-01T12:10:45.543Z,38.28
2017-06-01T12:11:46.270Z,38.02
2017-06-01T12:12:47.236Z,38.12
2017-06-01T12:13:47.954Z,38.39
2017-06-01T12:14:48.670Z,38.40
2017-06-01T12:15:49.394Z,38.43
2017-06-01T12:16:50.110Z,38.49
2017-06-01T12:17:51.029Z,37.83
2017-06-01T12:18:51.752Z,38.24
2017-06-01T12:19:52.474Z,37.92
2017-06-01T12:20:53.190Z,38.12
2017-06-01T12:21:53.920Z,38.23
2017-06-01T12:22:54.842Z,38.34
2017-06-01T12:23:55.560Z,38.65
2017-06-01T12:24:56.274Z,38.58
2017-06-01T12:25:56.998Z,37.74
2017-06-01T12:26:57.719Z,38.17
2017-06-01T12:27:58.640Z,38.46
2017-06-01T12:28:59.358Z,38.82
2017-06-01T12:30:00.077Z,38.60
2017-06-01T12:31:00.799Z,36.33
2017-06-01T12:32:01.528Z,35.51
2017-06-01T12:33:02.454Z,34.35
2017-06-01T12:34:03.191Z,35.17
2017-06-01T12:35:03.916Z,36.51
2017-06-01T12:36:04.643Z,37.03
2017-06-01T12:37:05.360Z,37.64
2017-06-01T12:38:06.336Z,37.78
2017-06-01T12:39:07.072Z,37.89
2017-06-01T12:40:07.793Z,38.38
2017-06-01T12:41:08.514Z,38.55
2017-06-01T12:42:09.242Z,39.21
2017-06-01T12:43:10.162Z,38.97
2017-06-01T12:44:10.879Z,37.70
2017-06-01T12:45:11.598Z,37.44
2017-06-01T12:46:12.326Z,38.12
2017-06-01T12:47:13.047Z,38.20
2017-06-01T12:48:14.018Z,38.45
2017-06-01T12:49:14.740Z,39.25
2017-06-01T12:50:15.481Z,39.56
2017-06-01T12:51:16.207Z,40.00
2017-06-01T12:52:16.933Z,40.15
2017-06-01T12:53:17.905Z,40.87
2017-06-01T12:54:18.630Z,39.25
2017-06-01T12:55:19.350Z,39.37
2017-06-01T12:56:20.067Z,40.06
2017-06-01T12:57:20.789Z,40.15
2017-06-01T12:58:21.708Z,39.68
2017-06-01T12:59:22.429Z,39.49
2017-06-01T13:00:23.231Z,39.49
2017-06-01T13:01:23.956Z,38.58
2017-06-01T13:02:24.677Z,38.57